createdAt,value
2023-05-17T00:01:10.261Z,60.39
2023-05-17T00:04:12.425Z,60.36
2023-05-17T00:07:14.539Z,60.35
2023-05-17T00:10:16.809Z,60.35
2023-05-17T00:13:18.891Z,60.36
2023-05-17T00:16:20.950Z,60.41
2023-05-17T00:19:23.223Z,60.39
2023-05-17T00:22:25.728Z,60.39
2023-05-17T00:25:27.986Z,60.39
2023-05-17T00:28:30.618Z,60.45
2023-05-17T00:31:32.759Z,60.41
2023-05-17T00:34:34.917Z,60.44
2023-05-17T00:37:37.145Z,60.41
2023-05-17T00:40:39.223Z,60.44
2023-05-17T00:43:41.296Z,60.45
2023-05-17T00:46:43.369Z,60.41
2023-05-17T00:49:46.016Z,60.46
2023-05-17T00:52:48.138Z,60.45
2023-05-17T00:55:50.657Z,60.44
2023-05-17T00:58:53.885Z,60.47
2023-05-17T01:01:56.825Z,60.47
2023-05-17T01:04:59.271Z,60.47
2023-05-17T01:08:01.512Z,60.49
2023-05-17T01:11:29.327Z,60.47
2023-05-17T01:14:54.354Z,60.47
2023-05-17T01:18:02.643Z,60.51
2023-05-17T01:21:22.173Z,60.51
2023-05-17T01:25:03.392Z,60.54
2023-05-17T01:28:06.175Z,60.50
2023-05-17T01:31:09.365Z,60.53
2023-05-17T01:34:11.672Z,60.52
2023-05-17T01:37:13.777Z,60.50
2023-05-17T01:40:17.107Z,60.51
2023-05-17T01:43:26.440Z,60.53
2023-05-17T01:46:31.921Z,60.54
2023-05-17T01:49:38.742Z,60.51
2023-05-17T01:52:52.650Z,60.54
2023-05-17T01:56:01.134Z,60.51
2023-05-17T01:59:07.350Z,60.57
2023-05-17T02:02:09.527Z,60.60
2023-05-17T02:05:11.773Z,60.60
2023-05-17T02:08:14.856Z,60.64
2023-05-17T02:11:16.901Z,60.64
2023-05-17T02:14:19.237Z,60.61
2023-05-17T02:17:21.300Z,60.58
2023-05-17T02:20:23.546Z,60.57
2023-05-17T02:23:25.748Z,60.64
2023-05-17T02:26:27.943Z,60.64
2023-05-17T02:29:30.047Z,60.66
2023-05-17T02:32:32.957Z,60.61
2023-05-17T02:35:35.090Z,60.65
2023-05-17T02:38:37.266Z,60.64
2023-05-17T02:41:39.368Z,60.65
2023-05-17T02:44:41.485Z,60.68
2023-05-17T02:47:43.785Z,60.70
2023-05-17T02:50:45.885Z,60.69
2023-05-17T02:53:47.989Z,60.75
2023-05-17T02:56:50.077Z,60.70
2023-05-17T02:59:52.246Z,60.70
2023-05-17T03:02:54.355Z,60.70
2023-05-17T03:06:04.720Z,60.68
2023-05-17T03:09:07.204Z,60.72
2023-05-17T03:12:09.600Z,60.70
2023-05-17T03:15:11.904Z,60.75
2023-05-17T03:18:14.051Z,60.67
2023-05-17T03:21:16.145Z,60.71
2023-05-17T03:24:18.303Z,60.73
2023-05-17T03:27:20.476Z,60.75
2023-05-17T03:30:22.746Z,60.74
2023-05-17T03:33:25.026Z,60.73
2023-05-17T03:36:27.172Z,60.73
2023-05-17T03:39:29.265Z,60.76
2023-05-17T03:42:31.980Z,60.74
2023-05-17T03:45:34.031Z,60.73
2023-05-17T03:48:36.504Z,60.80
2023-05-17T03:51:38.691Z,60.74
2023-05-17T03:54:40.762Z,60.74
2023-05-17T03:57:42.820Z,60.74
2023-05-17T04:00:44.832Z,60.76
2023-05-17T04:03:47.451Z,60.81
2023-05-17T04:06:49.590Z,60.80
2023-05-17T04:09:53.371Z,60.80
2023-05-17T04:12:55.414Z,60.80
2023-05-17T04:15:57.459Z,60.77
2023-05-17T04:19:01.131Z,60.82
2023-05-17T04:22:03.292Z,60.83
2023-05-17T04:25:05.791Z,60.77
2023-05-17T04:28:07.870Z,60.77
2023-05-17T04:31:10.211Z,60.85
2023-05-17T04:34:12.468Z,61.00
2023-05-17T04:37:15.825Z,60.90
2023-05-17T04:40:17.988Z,61.03
2023-05-17T04:43:20.036Z,60.99
2023-05-17T04:46:22.337Z,61.05
2023-05-17T04:49:25.094Z,61.14
2023-05-17T04:52:27.192Z,61.06
2023-05-17T04:55:29.596Z,61.00
2023-05-17T04:58:32.063Z,60.94
2023-05-17T05:01:35.313Z,60.88
2023-05-17T05:04:38.406Z,60.80
2023-05-17T05:07:42.504Z,60.81
2023-05-17T05:10:44.752Z,60.89
2023-05-17T05:13:46.831Z,60.99
2023-05-17T05:16:48.886Z,61.13
2023-05-17T05:19:51.271Z,61.09
2023-05-17T05:22:53.381Z,61.05
2023-05-17T05:25:55.451Z,61.10
2023-05-17T05:28:58.087Z,61.12
2023-05-17T05:32:00.373Z,60.96
2023-05-17T05:35:02.713Z,60.91
2023-05-17T05:38:04.990Z,60.83
2023-05-17T05:41:09.147Z,61.59
2023-05-17T05:44:11.326Z,61.28
2023-05-17T05:47:13.402Z,61.50
2023-05-17T05:50:15.980Z,61.56
2023-05-17T05:53:19.798Z,61.44
2023-05-17T05:56:22.191Z,61.39
2023-05-17T05:59:24.520Z,61.44
2023-05-17T06:02:26.734Z,61.38
2023-05-17T06:05:28.896Z,61.28
2023-05-17T06:08:31.024Z,61.25
2023-05-17T06:11:33.451Z,61.21
2023-05-17T06:14:37.460Z,60.88
2023-05-17T06:17:39.590Z,60.98
2023-05-17T06:20:41.718Z,61.02
2023-05-17T06:23:43.798Z,61.05
2023-05-17T06:26:47.112Z,60.75
2023-05-17T06:29:49.183Z,60.84
2023-05-17T06:32:51.348Z,60.79
2023-05-17T06:35:57.478Z,60.57
2023-05-17T06:39:00.055Z,60.48
2023-05-17T06:42:02.175Z,60.44
2023-05-17T06:45:04.750Z,60.42
2023-05-17T06:48:07.014Z,60.59
2023-05-17T06:51:09.118Z,60.33
2023-05-17T06:54:11.183Z,60.31
2023-05-17T06:57:13.416Z,60.29
2023-05-17T07:00:15.893Z,60.37
2023-05-17T07:03:18.090Z,60.35
2023-05-17T07:06:20.592Z,59.70
2023-05-17T07:09:22.771Z,59.75
2023-05-17T07:12:24.840Z,59.44
2023-05-17T07:15:27.148Z,59.21
2023-05-17T07:18:29.439Z,58.93
2023-05-17T07:21:32.526Z,58.69
2023-05-17T07:24:35.828Z,58.54
2023-05-17T07:27:37.922Z,58.32
2023-05-17T07:30:40.043Z,58.10
2023-05-17T07:33:42.131Z,58.01
2023-05-17T07:36:44.286Z,57.90
2023-05-17T07:39:46.385Z,57.81
2023-05-17T07:42:48.600Z,57.85
2023-05-17T07:45:50.725Z,57.73
2023-05-17T07:48:58.162Z,57.56
2023-05-17T07:52:02.191Z,56.54
2023-05-17T07:55:05.864Z,56.79
2023-05-17T07:58:11.772Z,56.94
2023-05-17T08:01:13.859Z,56.98
2023-05-17T08:04:15.994Z,56.80
2023-05-17T08:07:18.107Z,56.57
2023-05-17T08:10:20.274Z,56.56
2023-05-17T08:13:23.609Z,56.42
2023-05-17T08:16:26.387Z,56.34
2023-05-17T08:19:28.598Z,56.28
2023-05-17T08:22:31.162Z,56.24
2023-05-17T08:25:33.523Z,56.27
2023-05-17T08:28:35.786Z,56.28
2023-05-17T08:31:38.005Z,56.27
2023-05-17T08:34:40.233Z,56.35
2023-05-17T08:37:42.981Z,56.46
2023-05-17T08:40:53.244Z,56.40
2023-05-17T08:43:56.968Z,56.31
2023-05-17T08:47:00.526Z,56.48
2023-05-17T08:50:05.334Z,56.45
2023-05-17T08:53:08.993Z,56.36
2023-05-17T08:56:12.881Z,56.28
2023-05-17T08:59:15.074Z,56.39
2023-05-17T09:02:17.183Z,56.31
2023-05-17T09:05:20.377Z,56.48
2023-05-17T09:08:23.642Z,56.36
2023-05-17T09:11:34.980Z,56.31
2023-05-17T09:14:37.085Z,56.62
2023-05-17T09:17:40.743Z,56.84
2023-05-17T09:20:43.374Z,56.62
2023-05-17T09:24:01.700Z,56.90
2023-05-17T09:27:08.347Z,56.64
2023-05-17T09:30:12.222Z,56.65
2023-05-17T09:33:17.627Z,56.59
2023-05-17T09:36:22.693Z,56.48
2023-05-17T09:39:25.921Z,56.38
2023-05-17T09:42:28.243Z,56.34
2023-05-17T09:45:32.839Z,56.10
2023-05-17T09:48:38.880Z,56.06
2023-05-17T09:51:43.510Z,56.03
2023-05-17T09:54:55.376Z,56.28
2023-05-17T09:58:03.758Z,56.38
2023-05-17T10:01:07.344Z,58.03
2023-05-17T10:04:13.681Z,57.17
2023-05-17T10:07:19.711Z,57.65
2023-05-17T10:10:21.954Z,57.73
2023-05-17T10:13:31.372Z,57.99
2023-05-17T10:16:34.598Z,57.90
2023-05-17T10:19:38.143Z,57.56
2023-05-17T10:22:40.381Z,57.40
2023-05-17T10:25:45.075Z,56.87
2023-05-17T10:28:52.055Z,56.36
2023-05-17T10:31:54.708Z,56.18
2023-05-17T10:35:10.292Z,56.97
2023-05-17T10:38:13.768Z,57.13
2023-05-17T10:41:18.254Z,56.90
2023-05-17T10:44:20.578Z,56.88
2023-05-17T10:47:31.381Z,57.02
2023-05-17T10:50:33.665Z,57.13
2023-05-17T10:54:05.710Z,57.42
2023-05-17T10:57:09.137Z,57.35
2023-05-17T11:00:20.495Z,57.16
2023-05-17T11:03:28.989Z,56.71
2023-05-17T11:06:36.705Z,56.96
2023-05-17T11:09:40.916Z,56.77
2023-05-17T11:12:45.935Z,56.93
2023-05-17T11:16:07.675Z,56.03
2023-05-17T11:19:12.049Z,55.59
2023-05-17T11:22:16.196Z,56.54
2023-05-17T11:25:19.511Z,56.74
2023-05-17T11:28:22.815Z,56.69
2023-05-17T11:31:36.232Z,56.77
2023-05-17T11:34:38.827Z,57.48
2023-05-17T11:37:44.711Z,57.51
2023-05-17T11:40:53.149Z,57.57
2023-05-17T11:43:55.668Z,57.51
2023-05-17T11:47:05.817Z,57.35
2023-05-17T11:50:08.493Z,57.16
2023-05-17T11:53:11.573Z,57.13
2023-05-17T11:56:14.972Z,57.21
2023-05-17T11:59:23.609Z,57.11
2023-05-17T12:02:30.526Z,56.97
2023-05-17T12:05:32.811Z,56.92
2023-05-17T12:08:36.838Z,56.84
2023-05-17T12:11:40.964Z,56.89
2023-05-17T12:14:47.850Z,56.84
2023-05-17T12:17:51.789Z,57.08
2023-05-17T12:21:03.235Z,56.71
2023-05-17T12:24:06.116Z,56.87
2023-05-17T12:27:09.115Z,56.90
2023-05-17T12:30:17.629Z,56.80
2023-05-17T12:33:20.270Z,56.80
2023-05-17T12:36:23.114Z,56.82
2023-05-17T12:39:25.634Z,56.86
2023-05-17T12:42:27.910Z,56.90
2023-05-17T12:45:30.092Z,56.71
2023-05-17T12:48:36.372Z,56.72
2023-05-17T12:51:51.419Z,56.51
2023-05-17T12:54:53.588Z,56.57
2023-05-17T12:57:56.140Z,56.62
2023-05-17T13:01:03.034Z,56.67
2023-05-17T13:04:05.819Z,56.64
2023-05-17T13:07:07.983Z,56.58
2023-05-17T13:10:27.473Z,56.57
2023-05-17T13:13:34.115Z,56.67
2023-05-17T13:16:40.914Z,56.58
2023-05-17T13:19:43.087Z,56.62
2023-05-17T13:22:49.631Z,56.66
2023-05-17T13:25:51.783Z,56.61
2023-05-17T13:28:53.901Z,56.51
2023-05-17T13:31:55.941Z,56.38
2023-05-17T13:34:58.064Z,56.29
2023-05-17T13:38:00.452Z,56.09
2023-05-17T13:41:02.639Z,56.00
2023-05-17T13:44:04.895Z,55.97
2023-05-17T13:47:07.410Z,56.00
2023-05-17T13:50:10.520Z,56.10
2023-05-17T13:53:13.013Z,56.16
2023-05-17T13:56:15.121Z,56.23
2023-05-17T13:59:17.207Z,55.99
2023-05-17T14:02:19.260Z,55.84
2023-05-17T14:05:21.401Z,55.68
2023-05-17T14:08:23.476Z,55.71
2023-05-17T14:11:25.791Z,55.56
2023-05-17T14:14:28.818Z,55.45
2023-05-17T14:17:30.872Z,55.36
2023-05-17T14:20:33.415Z,55.26
2023-05-17T14:23:36.117Z,55.20
2023-05-17T14:26:38.229Z,55.15
2023-05-17T14:29:40.306Z,55.23
2023-05-17T14:32:42.463Z,55.22
2023-05-17T14:35:44.582Z,54.94
2023-05-17T14:38:46.637Z,54.91
2023-05-17T14:41:48.745Z,54.97
2023-05-17T14:44:50.880Z,54.92
2023-05-17T14:47:53.082Z,55.26
2023-05-17T14:50:55.218Z,55.31
2023-05-17T14:53:58.018Z,55.30
2023-05-17T14:57:00.597Z,55.33
2023-05-17T15:00:02.899Z,55.22
2023-05-17T15:03:05.210Z,53.79
2023-05-17T15:06:10.092Z,51.30
2023-05-17T15:09:14.266Z,48.50
2023-05-17T15:12:16.368Z,45.01
2023-05-17T15:15:20.551Z,42.67
2023-05-17T15:18:22.624Z,45.76
2023-05-17T15:21:24.781Z,45.05
2023-05-17T15:24:27.508Z,44.91
2023-05-17T15:27:29.576Z,43.77
2023-05-17T15:30:32.412Z,43.95
2023-05-17T15:33:34.605Z,44.00
2023-05-17T15:36:37.010Z,40.33
2023-05-17T15:39:39.114Z,41.31
2023-05-17T15:42:41.466Z,43.07
2023-05-17T15:45:43.517Z,43.58
2023-05-17T15:48:46.160Z,44.38
2023-05-17T15:51:48.379Z,45.01
2023-05-17T15:54:50.505Z,46.51
2023-05-17T15:57:52.555Z,47.44
2023-05-17T16:00:55.322Z,48.41
2023-05-17T16:03:57.600Z,49.10
2023-05-17T16:06:59.723Z,49.85
2023-05-17T16:10:01.801Z,50.21
2023-05-17T16:13:04.498Z,50.67
2023-05-17T16:16:07.206Z,50.92
2023-05-17T16:19:09.451Z,51.30
2023-05-17T16:22:11.662Z,51.58
2023-05-17T16:25:24.320Z,51.79
2023-05-17T16:28:26.442Z,51.90
2023-05-17T16:31:28.645Z,52.15
2023-05-17T16:34:32.380Z,52.27
2023-05-17T16:37:34.488Z,52.64
2023-05-17T16:40:38.370Z,52.69
2023-05-17T16:43:40.784Z,52.80
2023-05-17T16:46:43.169Z,52.91
2023-05-17T16:49:45.237Z,53.06
2023-05-17T16:52:47.300Z,53.30
2023-05-17T16:55:49.332Z,53.43
2023-05-17T16:58:52.288Z,53.46
2023-05-17T17:01:55.254Z,53.70
2023-05-17T17:04:58.463Z,53.68
2023-05-17T17:08:00.579Z,53.92
2023-05-17T17:11:02.665Z,53.94
2023-05-17T17:14:05.508Z,54.14
2023-05-17T17:17:08.018Z,54.13
2023-05-17T17:20:11.160Z,54.27
2023-05-17T17:23:13.301Z,54.19
2023-05-17T17:26:16.011Z,54.29
2023-05-17T17:29:18.158Z,54.33
2023-05-17T17:32:20.337Z,54.33
2023-05-17T17:35:22.518Z,54.50
2023-05-17T17:38:24.756Z,54.47
2023-05-17T17:41:26.935Z,54.55
2023-05-17T17:44:29.021Z,54.52
2023-05-17T17:47:31.120Z,54.61
2023-05-17T17:50:33.920Z,54.57
2023-05-17T17:53:36.153Z,54.76
2023-05-17T17:56:38.260Z,54.82
2023-05-17T17:59:40.335Z,54.72
2023-05-17T18:02:42.703Z,54.84
2023-05-17T18:05:44.824Z,54.90
2023-05-17T18:08:46.917Z,54.94
2023-05-17T18:11:49.323Z,55.02
2023-05-17T18:14:51.504Z,55.07
2023-05-17T18:17:54.696Z,55.13
2023-05-17T18:20:57.034Z,55.17
2023-05-17T18:23:59.122Z,55.18
2023-05-17T18:27:01.337Z,55.16
2023-05-17T18:30:04.296Z,55.12
2023-05-17T18:33:07.377Z,55.23
2023-05-17T18:36:09.509Z,55.34
2023-05-17T18:39:11.619Z,55.20
2023-05-17T18:42:13.812Z,55.30
2023-05-17T18:45:15.900Z,55.37
2023-05-17T18:48:18.160Z,55.42
2023-05-17T18:51:20.320Z,55.36
2023-05-17T18:54:22.479Z,55.36
2023-05-17T18:57:24.724Z,55.33
2023-05-17T19:00:27.117Z,55.37
2023-05-17T19:03:29.314Z,55.33
2023-05-17T19:06:31.811Z,55.38
2023-05-17T19:09:34.447Z,55.39
2023-05-17T19:12:36.690Z,55.46
2023-05-17T19:15:38.848Z,55.41
2023-05-17T19:18:41.235Z,55.33
2023-05-17T19:21:43.319Z,55.36
2023-05-17T19:24:45.466Z,55.47
2023-05-17T19:27:47.711Z,54.94
2023-05-17T19:30:49.841Z,55.16
2023-05-17T19:33:51.888Z,55.42
2023-05-17T19:36:53.939Z,55.33
2023-05-17T19:39:56.019Z,55.26
2023-05-17T19:42:58.153Z,55.11
2023-05-17T19:46:00.413Z,54.80
2023-05-17T19:49:02.520Z,54.61
2023-05-17T19:52:04.900Z,54.33
2023-05-17T19:55:07.353Z,53.84
2023-05-17T19:58:09.430Z,54.24
2023-05-17T20:01:11.567Z,53.93
2023-05-17T20:04:13.792Z,54.12
2023-05-17T20:07:17.376Z,53.97
2023-05-17T20:10:19.541Z,54.07
2023-05-17T20:13:24.701Z,53.92
2023-05-17T20:16:28.081Z,53.91
2023-05-17T20:19:30.553Z,54.00
2023-05-17T20:22:33.153Z,53.90
2023-05-17T20:25:35.498Z,54.19
2023-05-17T20:28:37.644Z,54.20
2023-05-17T20:31:40.123Z,54.13
2023-05-17T20:34:42.266Z,54.10
2023-05-17T20:37:44.306Z,53.85
2023-05-17T20:40:46.463Z,54.13
2023-05-17T20:43:51.747Z,54.19
2023-05-17T20:46:57.031Z,54.07
2023-05-17T20:49:59.698Z,54.05
2023-05-17T20:53:01.763Z,54.10
2023-05-17T20:56:04.036Z,54.11
2023-05-17T20:59:07.143Z,54.21
2023-05-17T21:02:09.268Z,53.97
2023-05-17T21:05:11.292Z,54.12
2023-05-17T21:08:13.386Z,54.21
2023-05-17T21:11:20.841Z,54.23
2023-05-17T21:14:22.956Z,54.08
2023-05-17T21:17:24.999Z,54.01
2023-05-17T21:20:27.104Z,54.15
2023-05-17T21:23:29.193Z,54.12
2023-05-17T21:26:31.272Z,54.17
2023-05-17T21:29:33.314Z,54.08
2023-05-17T21:32:35.391Z,54.06
2023-05-17T21:35:37.558Z,54.06
2023-05-17T21:38:39.641Z,54.10
2023-05-17T21:41:41.848Z,54.10
2023-05-17T21:44:43.999Z,54.06
2023-05-17T21:47:46.110Z,53.96
2023-05-17T21:50:49.749Z,53.95
2023-05-17T21:53:51.835Z,54.04
2023-05-17T21:56:53.905Z,54.20
2023-05-17T21:59:55.995Z,54.19
2023-05-17T22:02:58.144Z,54.38
2023-05-17T22:06:01.118Z,54.46
2023-05-17T22:09:03.270Z,54.56
2023-05-17T22:12:08.309Z,54.65
2023-05-17T22:15:10.951Z,54.78
2023-05-17T22:18:13.839Z,54.88
2023-05-17T22:21:15.980Z,54.94
2023-05-17T22:24:19.873Z,54.99
2023-05-17T22:27:22.196Z,55.04
2023-05-17T22:30:24.287Z,55.09
2023-05-17T22:33:29.537Z,55.10
2023-05-17T22:36:32.201Z,55.13
2023-05-17T22:39:34.561Z,55.20
2023-05-17T22:42:37.096Z,55.20
2023-05-17T22:45:40.174Z,55.20
2023-05-17T22:48:42.342Z,55.25
2023-05-17T22:51:44.467Z,55.28
2023-05-17T22:54:46.624Z,55.28
2023-05-17T22:57:48.758Z,55.23
2023-05-17T23:00:51.384Z,55.29
2023-05-17T23:03:53.535Z,55.20
2023-05-17T23:07:03.514Z,55.20
2023-05-17T23:10:08.175Z,55.21
2023-05-17T23:13:10.975Z,55.16
2023-05-17T23:16:14.086Z,55.18
2023-05-17T23:19:17.160Z,55.16
2023-05-17T23:22:19.724Z,55.29
2023-05-17T23:25:21.839Z,55.25
2023-05-17T23:28:25.072Z,55.16
2023-05-17T23:31:29.881Z,55.24
2023-05-17T23:34:32.010Z,55.29
2023-05-17T23:37:34.696Z,55.23
2023-05-17T23:40:37.153Z,55.33
2023-05-17T23:43:39.273Z,55.36
2023-05-17T23:46:44.561Z,55.39
2023-05-17T23:49:46.708Z,55.42
2023-05-17T23:52:48.808Z,55.42
2023-05-17T23:55:51.033Z,55.52
2023-05-17T23:58:53.069Z,55.55
